createdAt,value
2023-03-07T00:00:48.411Z,6.25
2023-03-07T00:03:38.890Z,6.93
2023-03-07T00:06:29.099Z,6.65
2023-03-07T00:09:17.546Z,7.32
2023-03-07T00:12:06.533Z,5.78
2023-03-07T00:14:57.033Z,6.53
2023-03-07T00:17:45.782Z,5.95
2023-03-07T00:20:34.265Z,5.70
2023-03-07T00:23:24.078Z,5.60
2023-03-07T00:26:14.800Z,6.43
2023-03-07T00:29:03.264Z,6.03
2023-03-07T00:31:51.787Z,5.15
2023-03-07T00:34:40.251Z,7.35
2023-03-07T00:37:30.833Z,5.45
2023-03-07T00:40:21.101Z,6.95
2023-03-07T00:43:09.580Z,6.03
2023-03-07T00:45:58.403Z,6.20
2023-03-07T00:48:47.527Z,5.72
2023-03-07T00:51:36.005Z,5.75
2023-03-07T00:54:24.498Z,5.10
2023-03-07T00:57:14.310Z,5.97
2023-03-07T01:00:02.786Z,5.95
2023-03-07T01:02:52.894Z,5.88
2023-03-07T01:05:41.627Z,5.50
2023-03-07T01:08:30.076Z,5.05
2023-03-07T01:11:18.746Z,5.10
2023-03-07T01:14:08.602Z,5.03
2023-03-07T01:16:57.102Z,4.78
2023-03-07T01:19:45.540Z,4.88
2023-03-07T01:22:34.293Z,4.97
2023-03-07T01:25:22.748Z,5.83
2023-03-07T01:28:14.397Z,5.32
2023-03-07T01:31:04.280Z,4.77
2023-03-07T01:33:54.583Z,5.03
2023-03-07T01:36:43.069Z,5.28
2023-03-07T01:39:31.641Z,4.65
2023-03-07T01:42:20.397Z,4.85
2023-03-07T01:45:30.127Z,4.57
2023-03-07T01:48:20.052Z,5.63
2023-03-07T01:51:08.656Z,5.13
2023-03-07T01:53:58.526Z,4.87
2023-03-07T01:56:48.410Z,4.20
2023-03-07T01:59:41.401Z,4.97
2023-03-07T02:02:30.417Z,4.88
2023-03-07T02:05:25.384Z,5.68
2023-03-07T02:08:16.231Z,5.18
2023-03-07T02:11:05.037Z,5.78
2023-03-07T02:13:53.467Z,5.17
2023-03-07T02:16:42.761Z,4.75
2023-03-07T02:19:46.296Z,5.00
2023-03-07T02:22:36.209Z,4.85
2023-03-07T02:25:31.465Z,4.53
2023-03-07T02:28:21.652Z,6.07
2023-03-07T02:31:11.753Z,5.47
2023-03-07T02:34:00.847Z,5.03
2023-03-07T02:36:51.088Z,4.68
2023-03-07T02:39:42.674Z,4.20
2023-03-07T02:42:34.291Z,4.25
2023-03-07T02:45:24.139Z,4.30
2023-03-07T02:48:12.532Z,4.40
2023-03-07T02:51:01.109Z,4.60
2023-03-07T02:53:49.559Z,4.10
2023-03-07T02:56:38.228Z,4.68
2023-03-07T02:59:26.719Z,5.40
2023-03-07T03:02:16.868Z,5.70
2023-03-07T03:05:05.998Z,5.00
2023-03-07T03:07:54.646Z,4.25
2023-03-07T03:10:43.148Z,5.05
2023-03-07T03:13:31.617Z,5.13
2023-03-07T03:16:20.184Z,4.53
2023-03-07T03:19:10.440Z,4.97
2023-03-07T03:21:59.143Z,5.03
2023-03-07T03:24:47.620Z,4.60
2023-03-07T03:27:36.442Z,4.65
2023-03-07T03:30:24.892Z,4.38
2023-03-07T03:33:13.599Z,3.92
2023-03-07T03:36:09.104Z,4.40
2023-03-07T03:38:59.660Z,4.63
2023-03-07T03:41:48.254Z,4.45
2023-03-07T03:44:36.691Z,5.57
2023-03-07T03:47:25.202Z,5.32
2023-03-07T03:50:13.772Z,5.30
2023-03-07T03:53:03.891Z,4.88
2023-03-07T03:55:52.270Z,5.00
2023-03-07T03:58:41.938Z,4.68
2023-03-07T04:01:30.834Z,5.30
2023-03-07T04:04:19.416Z,5.25
2023-03-07T04:07:07.875Z,5.20
2023-03-07T04:09:57.692Z,4.65
2023-03-07T04:12:46.723Z,4.50
2023-03-07T04:15:35.222Z,5.13
2023-03-07T04:18:24.332Z,5.07
2023-03-07T04:21:12.963Z,4.75
2023-03-07T04:24:01.460Z,4.85
2023-03-07T04:26:51.290Z,4.72
2023-03-07T04:29:39.714Z,5.45
2023-03-07T04:32:28.183Z,4.93
2023-03-07T04:35:16.746Z,4.47
2023-03-07T04:38:05.168Z,6.25
2023-03-07T04:40:53.655Z,5.22
2023-03-07T04:43:43.645Z,4.93
2023-03-07T04:46:32.170Z,4.88
2023-03-07T04:49:20.592Z,4.80
2023-03-07T04:52:09.186Z,5.50
2023-03-07T04:54:57.636Z,5.40
2023-03-07T04:57:46.753Z,4.57
2023-03-07T05:00:36.559Z,5.00
2023-03-07T05:03:26.293Z,5.50
2023-03-07T05:06:17.120Z,5.57
2023-03-07T05:09:05.959Z,5.05
2023-03-07T05:11:54.440Z,6.28
2023-03-07T05:14:42.882Z,5.32
2023-03-07T05:17:32.877Z,6.60
2023-03-07T05:20:22.000Z,6.45
2023-03-07T05:23:10.487Z,7.55
2023-03-07T05:25:58.955Z,6.43
2023-03-07T05:28:47.578Z,6.60
2023-03-07T05:31:36.229Z,5.90
2023-03-07T05:34:26.180Z,5.80
2023-03-07T05:37:14.708Z,6.82
2023-03-07T05:40:04.040Z,6.00
2023-03-07T05:42:52.515Z,5.68
2023-03-07T05:45:41.033Z,5.85
2023-03-07T05:48:29.551Z,5.90
2023-03-07T05:51:19.399Z,5.57
2023-03-07T05:54:07.911Z,6.50
2023-03-07T05:56:56.329Z,6.75
2023-03-07T05:59:44.781Z,8.18
2023-03-07T06:02:33.257Z,6.53
2023-03-07T06:05:23.208Z,6.43
2023-03-07T06:08:14.088Z,5.40
2023-03-07T06:11:02.586Z,6.38
2023-03-07T06:13:51.117Z,6.35
2023-03-07T06:16:39.629Z,5.50
2023-03-07T06:19:28.273Z,7.25
2023-03-07T06:22:16.707Z,6.25
2023-03-07T06:25:07.823Z,6.35
2023-03-07T06:27:59.750Z,7.63
2023-03-07T06:30:48.275Z,6.60
2023-03-07T06:33:36.752Z,5.78
2023-03-07T06:36:25.244Z,6.25
2023-03-07T06:39:16.906Z,6.32
2023-03-07T06:42:07.145Z,6.30
2023-03-07T06:44:55.633Z,5.72
2023-03-07T06:47:44.094Z,6.00
2023-03-07T06:50:35.457Z,6.57
2023-03-07T06:53:24.325Z,6.15
2023-03-07T06:56:12.795Z,5.93
2023-03-07T06:59:03.071Z,6.20
2023-03-07T07:01:51.862Z,6.97
2023-03-07T07:04:40.346Z,5.60
2023-03-07T07:07:28.916Z,4.93
2023-03-07T07:10:17.580Z,5.57
2023-03-07T07:13:06.163Z,4.95
2023-03-07T07:15:56.017Z,5.68
2023-03-07T07:18:44.767Z,5.10
2023-03-07T07:21:33.343Z,5.00
2023-03-07T07:24:21.820Z,7.10
2023-03-07T07:27:12.514Z,5.35
2023-03-07T07:30:01.143Z,6.18
2023-03-07T07:32:51.368Z,6.78
2023-03-07T07:35:39.947Z,5.97
2023-03-07T07:38:28.503Z,5.40
2023-03-07T07:41:18.237Z,4.93
2023-03-07T07:44:06.787Z,7.40
2023-03-07T07:46:55.225Z,5.83
2023-03-07T07:49:45.058Z,10.85
2023-03-07T07:52:33.504Z,6.18
2023-03-07T07:55:22.156Z,5.80
2023-03-07T07:58:10.598Z,7.90
2023-03-07T08:00:59.015Z,6.68
2023-03-07T08:03:47.844Z,7.65
2023-03-07T08:06:38.008Z,6.95
2023-03-07T08:09:26.444Z,6.00
2023-03-07T08:12:15.223Z,6.55
2023-03-07T08:15:04.060Z,7.43
2023-03-07T08:17:53.137Z,5.93
2023-03-07T08:20:42.296Z,6.07
2023-03-07T08:23:32.076Z,6.00
2023-03-07T08:26:20.714Z,6.30
2023-03-07T08:29:09.231Z,5.20
2023-03-07T08:31:57.780Z,5.80
2023-03-07T08:34:46.365Z,5.00
2023-03-07T08:37:35.340Z,6.23
2023-03-07T08:40:26.157Z,7.20
2023-03-07T08:43:14.681Z,5.93
2023-03-07T08:46:03.751Z,6.78
2023-03-07T08:48:52.237Z,4.80
2023-03-07T08:51:40.668Z,5.75
2023-03-07T08:54:29.427Z,6.43
2023-03-07T08:57:19.313Z,6.00
2023-03-07T09:00:09.801Z,5.88
2023-03-07T09:03:01.482Z,8.57
2023-03-07T09:05:49.993Z,6.23
2023-03-07T09:08:38.485Z,5.75
2023-03-07T09:11:26.998Z,5.03
2023-03-07T09:14:16.883Z,5.47
2023-03-07T09:17:05.507Z,5.88
2023-03-07T09:19:53.927Z,5.82
2023-03-07T09:22:42.410Z,4.95
2023-03-07T09:25:31.233Z,5.83
2023-03-07T09:28:19.946Z,5.32
2023-03-07T09:31:11.083Z,6.47
2023-03-07T09:33:59.857Z,5.10
2023-03-07T09:36:48.629Z,5.00
2023-03-07T09:39:37.364Z,5.30
2023-03-07T09:42:29.769Z,5.07
2023-03-07T09:45:31.343Z,4.40
2023-03-07T09:48:34.573Z,5.22
2023-03-07T09:51:26.007Z,5.30
2023-03-07T09:54:18.195Z,5.43
2023-03-07T09:57:13.549Z,6.30
2023-03-07T10:00:05.836Z,4.65
2023-03-07T10:02:58.392Z,4.60
2023-03-07T10:05:51.613Z,4.55
2023-03-07T10:08:40.241Z,4.88
2023-03-07T10:11:49.472Z,4.20
2023-03-07T10:15:03.640Z,4.47
2023-03-07T10:18:25.710Z,5.53
2023-03-07T10:21:25.799Z,4.70
2023-03-07T10:24:48.038Z,4.33
2023-03-07T10:27:36.766Z,4.83
2023-03-07T10:30:25.499Z,4.93
2023-03-07T10:33:17.214Z,5.00
2023-03-07T10:36:08.808Z,5.18
2023-03-07T10:39:02.410Z,4.78
2023-03-07T10:41:51.673Z,4.60
2023-03-07T10:44:40.884Z,5.03
2023-03-07T10:47:30.681Z,5.38
2023-03-07T10:50:25.180Z,4.60
2023-03-07T10:53:21.779Z,4.47
2023-03-07T10:56:13.236Z,4.40
2023-03-07T10:59:05.853Z,3.42
2023-03-07T11:01:56.136Z,3.70
2023-03-07T11:04:45.651Z,4.22
2023-03-07T11:07:35.891Z,4.50
2023-03-07T11:10:33.365Z,4.03
2023-03-07T11:13:24.335Z,3.92
2023-03-07T11:16:20.662Z,4.30
2023-03-07T11:19:24.296Z,4.20
2023-03-07T11:22:20.671Z,3.58
2023-03-07T11:25:15.943Z,3.83
2023-03-07T11:28:04.870Z,3.80
2023-03-07T11:30:55.610Z,3.70
2023-03-07T11:33:58.941Z,3.75
2023-03-07T11:36:50.475Z,3.88
2023-03-07T11:39:42.368Z,2.60
2023-03-07T11:42:33.874Z,3.55
2023-03-07T11:45:29.809Z,2.63
2023-03-07T11:48:33.386Z,3.63
2023-03-07T11:51:37.906Z,2.97
2023-03-07T11:54:33.614Z,3.08
2023-03-07T11:57:27.178Z,3.67
2023-03-07T12:00:50.817Z,3.67
2023-03-07T12:03:48.413Z,3.30
2023-03-07T12:06:43.043Z,3.30
2023-03-07T12:09:39.900Z,3.63
2023-03-07T12:12:37.125Z,3.35
2023-03-07T12:15:31.052Z,3.35
2023-03-07T12:18:26.177Z,3.00
2023-03-07T12:21:24.222Z,3.70
2023-03-07T12:24:18.854Z,3.03
2023-03-07T12:27:12.467Z,3.28
2023-03-07T12:30:03.640Z,3.50
2023-03-07T12:32:52.805Z,3.55
2023-03-07T12:35:44.848Z,2.95
2023-03-07T12:38:37.972Z,3.58
2023-03-07T12:41:34.093Z,3.28
2023-03-07T12:44:29.156Z,3.38
2023-03-07T12:47:24.524Z,3.75
2023-03-07T12:50:18.781Z,3.63
2023-03-07T12:53:16.157Z,4.18
2023-03-07T12:56:11.229Z,3.57
2023-03-07T12:59:04.978Z,3.28
2023-03-07T13:02:00.279Z,3.20
2023-03-07T13:04:48.697Z,3.30
2023-03-07T13:07:37.303Z,3.40
2023-03-07T13:10:26.584Z,3.47
2023-03-07T13:13:48.389Z,3.13
2023-03-07T13:16:42.198Z,4.07
2023-03-07T13:20:00.619Z,3.15
2023-03-07T13:23:00.200Z,3.60
2023-03-07T13:25:57.721Z,3.47
2023-03-07T13:28:53.114Z,3.42
2023-03-07T13:31:43.847Z,3.03
2023-03-07T13:34:51.591Z,3.10
2023-03-07T13:37:50.897Z,2.92
2023-03-07T13:40:54.645Z,3.00
2023-03-07T13:43:59.734Z,2.80
2023-03-07T13:46:51.846Z,3.08
2023-03-07T13:49:47.191Z,2.90
2023-03-07T13:52:45.288Z,3.10
2023-03-07T13:55:41.484Z,3.20
2023-03-07T13:58:34.760Z,3.00
2023-03-07T14:01:24.563Z,3.40
2023-03-07T14:04:24.199Z,3.42
2023-03-07T14:07:24.709Z,3.60
2023-03-07T14:10:22.875Z,3.25
2023-03-07T14:13:27.581Z,3.55
2023-03-07T14:16:27.800Z,3.10
2023-03-07T14:19:38.665Z,4.25
2023-03-07T14:23:00.046Z,3.30
2023-03-07T14:25:52.518Z,2.90
2023-03-07T14:28:49.614Z,2.90
2023-03-07T14:31:42.125Z,2.88
2023-03-07T14:34:35.057Z,2.80
2023-03-07T14:37:26.443Z,2.50
2023-03-07T14:40:31.057Z,2.80
2023-03-07T14:43:31.445Z,2.80
2023-03-07T14:46:27.007Z,3.00
2023-03-07T14:49:27.718Z,3.15
2023-03-07T14:52:30.333Z,2.80
2023-03-07T14:55:23.112Z,2.83
2023-03-07T14:58:18.606Z,2.65
2023-03-07T15:01:12.943Z,2.58
2023-03-07T15:04:01.515Z,2.40
2023-03-07T15:06:55.682Z,4.22
2023-03-07T15:09:45.588Z,3.03
2023-03-07T15:12:34.179Z,2.58
2023-03-07T15:15:31.533Z,2.70
2023-03-07T15:18:24.032Z,2.45
2023-03-07T15:21:18.813Z,2.90
2023-03-07T15:24:15.452Z,2.72
2023-03-07T15:27:10.303Z,2.60
2023-03-07T15:30:00.536Z,2.35
2023-03-07T15:32:49.035Z,2.45
2023-03-07T15:35:37.599Z,2.40
2023-03-07T15:38:26.537Z,2.60
2023-03-07T15:41:30.366Z,2.33
2023-03-07T15:44:22.254Z,2.72
2023-03-07T15:47:17.968Z,3.13
2023-03-07T15:50:08.212Z,2.63
2023-03-07T15:53:03.508Z,2.50
2023-03-07T15:55:57.118Z,2.85
2023-03-07T15:58:46.969Z,2.60
2023-03-07T16:01:36.871Z,2.43
2023-03-07T16:04:37.761Z,2.22
2023-03-07T16:07:26.510Z,2.55
2023-03-07T16:10:15.082Z,2.72
2023-03-07T16:13:03.804Z,2.60
2023-03-07T16:16:03.089Z,2.60
2023-03-07T16:18:53.658Z,2.42
2023-03-07T16:21:42.155Z,2.63
2023-03-07T16:24:30.654Z,2.50
2023-03-07T16:27:21.271Z,2.60
2023-03-07T16:30:15.698Z,2.72
2023-03-07T16:33:04.188Z,2.90
2023-03-07T16:35:53.999Z,2.35
2023-03-07T16:38:43.024Z,2.70
2023-03-07T16:41:31.551Z,1.92
2023-03-07T16:44:22.139Z,2.90
2023-03-07T16:47:15.507Z,2.38
2023-03-07T16:50:03.996Z,3.03
2023-03-07T16:52:53.939Z,2.47
2023-03-07T16:55:42.404Z,2.70
2023-03-07T16:58:34.934Z,2.53
2023-03-07T17:01:23.448Z,2.30
2023-03-07T17:04:11.944Z,1.77
2023-03-07T17:07:04.862Z,1.92
2023-03-07T17:09:56.458Z,2.25
2023-03-07T17:12:45.344Z,2.53
2023-03-07T17:15:33.914Z,2.70
2023-03-07T17:18:22.465Z,3.33
2023-03-07T17:21:13.838Z,2.33
2023-03-07T17:24:02.295Z,2.40
2023-03-07T17:26:53.572Z,2.30
2023-03-07T17:29:45.115Z,2.35
2023-03-07T17:32:33.840Z,2.40
2023-03-07T17:35:22.504Z,2.05
2023-03-07T17:38:10.873Z,2.50
2023-03-07T17:40:59.348Z,2.30
2023-03-07T17:43:49.156Z,2.57
2023-03-07T17:46:38.464Z,2.65
2023-03-07T17:49:32.745Z,2.55
2023-03-07T17:52:21.207Z,2.07
2023-03-07T17:55:11.044Z,2.22
2023-03-07T17:57:59.535Z,2.07
2023-03-07T18:00:49.684Z,1.80
2023-03-07T18:03:38.580Z,2.17
2023-03-07T18:06:27.182Z,2.67
2023-03-07T18:09:16.649Z,2.65
2023-03-07T18:12:05.507Z,2.50
2023-03-07T18:14:54.021Z,1.90
2023-03-07T18:17:49.146Z,2.10
2023-03-07T18:20:37.759Z,2.00
2023-03-07T18:23:26.286Z,2.13
2023-03-07T18:26:15.544Z,2.40
2023-03-07T18:29:04.055Z,2.27
2023-03-07T18:31:53.013Z,2.10
2023-03-07T18:34:42.880Z,2.05
2023-03-07T18:37:31.347Z,2.30
2023-03-07T18:40:22.068Z,1.95
2023-03-07T18:43:10.620Z,2.33
2023-03-07T18:45:59.511Z,2.20
2023-03-07T18:48:48.634Z,2.15
2023-03-07T18:51:39.450Z,2.15
2023-03-07T18:54:28.176Z,2.03
2023-03-07T18:57:16.859Z,2.47
2023-03-07T19:00:06.490Z,3.13
2023-03-07T19:02:55.208Z,2.70
2023-03-07T19:05:44.665Z,3.08
2023-03-07T19:08:34.864Z,4.40
2023-03-07T19:11:23.640Z,2.40
2023-03-07T19:14:12.414Z,1.88
2023-03-07T19:17:01.261Z,2.88
2023-03-07T19:19:52.980Z,2.45
2023-03-07T19:22:41.510Z,2.67
2023-03-07T19:25:32.043Z,2.17
2023-03-07T19:28:20.762Z,2.95
2023-03-07T19:31:09.826Z,2.30
2023-03-07T19:33:59.120Z,1.80
2023-03-07T19:36:47.640Z,7.35
2023-03-07T19:39:37.309Z,2.80
2023-03-07T19:42:27.257Z,5.23
2023-03-07T19:45:16.130Z,4.38
2023-03-07T19:48:06.194Z,5.00
2023-03-07T19:50:55.660Z,4.60
2023-03-07T19:53:44.409Z,4.32
2023-03-07T19:56:33.833Z,10.68
2023-03-07T19:59:23.893Z,15.10
2023-03-07T20:02:14.449Z,3.20
2023-03-07T20:05:02.990Z,4.23
2023-03-07T20:07:51.482Z,4.13
2023-03-07T20:10:40.190Z,3.25
2023-03-07T20:13:28.759Z,2.45
2023-03-07T20:16:20.497Z,2.47
2023-03-07T20:19:10.539Z,5.05
2023-03-07T20:21:58.984Z,2.97
2023-03-07T20:24:50.650Z,3.28
2023-03-07T20:27:39.139Z,4.50
2023-03-07T20:30:27.725Z,3.30
2023-03-07T20:33:17.597Z,3.03
2023-03-07T20:36:08.195Z,2.70
2023-03-07T20:38:58.052Z,2.63
2023-03-07T20:41:47.048Z,3.15
2023-03-07T20:44:35.849Z,2.80
2023-03-07T20:47:24.560Z,2.90
2023-03-07T20:50:14.971Z,2.87
2023-03-07T20:53:03.696Z,3.08
2023-03-07T20:55:52.436Z,3.20
2023-03-07T20:58:41.187Z,3.60
2023-03-07T21:01:30.795Z,4.88
2023-03-07T21:04:21.022Z,5.03
2023-03-07T21:07:10.859Z,5.15
2023-03-07T21:09:59.339Z,5.25
2023-03-07T21:12:47.758Z,5.75
2023-03-07T21:15:36.204Z,7.15
2023-03-07T21:18:25.057Z,8.80
2023-03-07T21:21:15.498Z,7.88
2023-03-07T21:24:06.383Z,6.25
2023-03-07T21:26:54.857Z,7.13
2023-03-07T21:29:43.610Z,10.63
2023-03-07T21:32:32.049Z,6.47
2023-03-07T21:35:20.522Z,9.45
2023-03-07T21:38:08.991Z,7.30
2023-03-07T21:40:59.083Z,9.27
2023-03-07T21:43:47.653Z,9.88
2023-03-07T21:46:36.242Z,7.78
2023-03-07T21:49:24.755Z,6.70
2023-03-07T21:52:13.196Z,7.05
2023-03-07T21:55:01.680Z,8.18
2023-03-07T21:57:51.642Z,5.30
2023-03-07T22:00:40.196Z,6.10
2023-03-07T22:03:29.980Z,6.03
2023-03-07T22:06:18.489Z,5.50
2023-03-07T22:09:06.985Z,5.85
2023-03-07T22:11:56.022Z,5.75
2023-03-07T22:14:45.899Z,7.33
2023-03-07T22:17:34.387Z,6.38
2023-03-07T22:20:23.203Z,6.68
2023-03-07T22:23:11.631Z,9.65
2023-03-07T22:26:05.268Z,6.13
2023-03-07T22:28:54.175Z,6.05
2023-03-07T22:31:44.012Z,6.25
2023-03-07T22:34:32.627Z,5.47
2023-03-07T22:37:21.151Z,5.43
2023-03-07T22:40:10.937Z,5.22
2023-03-07T22:42:59.423Z,5.43
2023-03-07T22:45:52.414Z,5.70
2023-03-07T22:48:42.396Z,5.50
2023-03-07T22:51:30.851Z,5.22
2023-03-07T22:54:19.348Z,5.35
2023-03-07T22:57:08.124Z,5.00
2023-03-07T22:59:56.596Z,4.15
2023-03-07T23:02:45.029Z,5.00
2023-03-07T23:05:35.009Z,4.82
2023-03-07T23:08:23.490Z,5.03
2023-03-07T23:11:12.359Z,5.53
2023-03-07T23:14:01.234Z,5.50
2023-03-07T23:16:49.875Z,5.00
2023-03-07T23:19:38.368Z,4.13
2023-03-07T23:22:28.175Z,4.80
2023-03-07T23:25:16.728Z,5.10
2023-03-07T23:28:05.345Z,5.22
2023-03-07T23:30:54.270Z,4.97
2023-03-07T23:33:42.713Z,4.88
2023-03-07T23:36:32.225Z,5.30
2023-03-07T23:39:21.996Z,4.22
2023-03-07T23:42:12.414Z,5.20
2023-03-07T23:45:00.834Z,4.30
2023-03-07T23:47:49.703Z,4.50
2023-03-07T23:50:38.217Z,4.05
2023-03-07T23:53:26.794Z,4.30
2023-03-07T23:56:16.824Z,4.30
2023-03-07T23:59:05.294Z,4.60
